| Date | Time | Temp. (oF) | Dew Point (oF) | Rel. Hum. (%) | Press. (in.) | Wind Dir. | Wind Speed (mph) | Hourly Rainfall (in.) |
|
|---|---|---|---|---|---|---|---|---|---|
| 1 | 12/20 | 00:00 | 40 | 39 | 99 | 29.70 | SSW | 1 | 0.00 |
| 2 | 12/19 | 23:00 | 40 | 39 | 97 | 29.71 | SSW | 2 | 0.00 |
| 3 | 12/19 | 22:00 | 41 | 39 | 94 | 29.72 | SE | 1 | 0.00 |
| 4 | 12/19 | 21:00 | 41 | 38 | 89 | 29.75 | S | 3 | 0.00 |
| 5 | 12/19 | 20:00 | 42 | 38 | 87 | 29.76 | SSE | 2 | 0.00 |
| 6 | 12/19 | 19:00 | 43 | 38 | 83 | 29.78 | S | 2 | 0.00 |
| 7 | 12/19 | 18:00 | 44 | 37 | 79 | 29.78 | SSE | 7 | 0.00 |
| 8 | 12/19 | 17:00 | 45 | 36 | 73 | 29.78 | SSE | 7 | 0.00 |
| 9 | 12/19 | 16:00 | 48 | 35 | 62 | 29.78 | SE | 4 | 0.00 |
| 10 | 12/19 | 15:00 | 52 | 37 | 57 | 29.79 | S | 9 | 0.00 |
| 11 | 12/19 | 14:00 | 52 | 36 | 56 | 29.82 | SSW | 5 | 0.00 |
| 12 | 12/19 | 13:00 | 51 | 37 | 60 | 29.86 | S | 4 | 0.00 |
| 13 | 12/19 | 12:00 | 48 | 35 | 63 | 29.89 | SW | 7 | 0.00 |
| 14 | 12/19 | 11:00 | 44 | 34 | 68 | 29.93 | S | 6 | 0.00 |
| 15 | 12/19 | 10:00 | 40 | 33 | 78 | 29.96 | SSE | 4 | 0.00 |
| 16 | 12/19 | 09:00 | 38 | 32 | 82 | 29.97 | SSW | 3 | 0.00 |
| 17 | 12/19 | 08:00 | 36 | 31 | 84 | 29.96 | SSW | 4 | 0.00 |
| 18 | 12/19 | 07:00 | 36 | 31 | 82 | 29.95 | SW | 2 | 0.00 |
| 19 | 12/19 | 06:00 | 37 | 30 | 78 | 29.94 | SW | 1 | 0.00 |
| 20 | 12/19 | 05:00 | 39 | 32 | 76 | 29.94 | WSW | 1 | 0.00 |
| 21 | 12/19 | 04:00 | 39 | 31 | 73 | 29.93 | SW | 4 | 0.00 |
| 22 | 12/19 | 03:00 | 39 | 31 | 73 | 29.92 | SW | 2 | 0.00 |
| 23 | 12/19 | 02:00 | 40 | 30 | 68 | 29.89 | W | 2 | 0.00 |
| 24 | 12/19 | 01:00 | 41 | 30 | 65 | 29.85 | WSW | 6 | 0.00 |